KBJC

Rocky Mountain Metropolitan Airport

Denver, Colorado, USA
METAR KBJC 151850Z 27021G30KT 60SM FEW150 15/M16 A2999
Observed Flight Rules
Dec-15 @ 18:50 UTC (an hour ago) Visual Flight Rules
Wind Visibility Clouds
270° at 21 knots
 Gusting to 30 knots
60 miles
  • Few at 15,000' AGL
Temperatures Readings
Current 15°C / 59°F
Dewpoint -16°C / 3°F
Humidity 10%
Altimeter 29.99" Hg
Pressure 1016 hPa
Elevation 1724
METAR KBJC 151850Z 27021G30KT 60SM FEW150 15/M16 A2999
Observed Flight Rules
Dec-15 @ 18:50 UTC
(an hour ago)
VFR
Wind Visibility
270° at 21 knots
 Gusting to 30 knots
60 miles
Clouds
  • Few at 15,000' AGL
Temperature Dewpoint
15°C / 59°F -16°C / 3°F
Humidity Altimeter Pressure
10% 29.99" Hg 1016 hPa